Portada
METAR-TAF:

METAR-TAF

Aeropuertos :

Pécs, Hungría

latitud: 46-06N, longitud: 018-14E, altitud: 201 m

Observación

El informe se hizo hace 8 horas y 3 minutos, a las 17:45 UTC
Viento 8 kt del norte-noroeste
Temperatura 12°C
Humedad 38%
Presión 1012 hPa
Visibilidad 10 km o más
sin nubes por debajo de 1500 m y sin presencia de cumulonimbus.

METAR: LHPP 291745Z 34008KT CAVOK 12/M02 Q1012

Hora: 03:48 (01:48 UTC)

Pronóstico

El informe se hizo hace 11 horas y 33 minutos, a las 14:15 UTC
Pronóstico válido del 29 a las 15 UTC al 29 a las 24 UTC
Viento 12 kt del norte
Visibilidad 10 km o más
sin nubes por debajo de 1500 m y sin presencia de cumulonimbus.
Evolucionando progresivamente
del 29 a las 15 UTC al 29 a las 18 UTC
Viento 7 kt del noroeste

TAF: LHPP 291415Z 2915/2924 35012KT CAVOK BECMG 2915/2918 32007KT

Observaciones y pronósticos meteorológicos de más de 4000 aeropuertos (mensajes METAR y TAF).

Los puntos amarillos y rojos representan las estaciones disponibles.

Ponga el ratón en el punto deseado para ver el nombre de la estación.

Haga clic para ver las observaciones y los pronósticos meteorológicos.

Para cambiar el mapa : haga clic en los botones verdes con una cruz de color negro para hacer un zoom, en el botón verde con un guión para alejar o en las flechas verdes para mapas adyacentes.


METAR-TAF: